KMQY

Smyrna Airport

Smyrna, Tennessee, USA
METAR KMQY 231056Z AUTO 00000KT 9SM CLR 04/04 A3025 RMK AO2 SLP215 T00390039
Observed Flight Rules
Oct-23 @ 10:56 UTC (56 minutes ago) Visual Flight Rules
Visibility Clouds
9 miles
  • Clear skies
Temperatures Readings
Current 4°C / 39°F
Dewpoint 4°C / 39°F
Humidity 100%
Altimeter 30.25" Hg
Pressure 1021.5 hPa
Elevation 166
METAR KMQY 231056Z AUTO 00000KT 9SM CLR 04/04 A3025 RMK AO2 SLP215 T00390039
Observed Flight Rules
Oct-23 @ 10:56 UTC
(56 minutes ago)
VFR
Clouds
  • Clear skies
Temperature Dewpoint
4°C / 39°F 4°C / 39°F
Humidity Altimeter Pressure
100% 30.25" Hg 1021.5 hPa